Miguel Alves, Brazil
Current Conditions -  °F | °C
As of 6:00 AM on Saturday 22 Nov 2014 (Local Time) from SBTE Reporting Station
Clear Clear  
Wind Chill: 79°   Ceiling: Unl
Heat Index: 82°   Visibility: 6mi
Dew Point: 72°   Wind: 0mph
Humidity: 78%   Direction: NA
Pressure: 29.83"   Gusts: NA
Location:  4.17°S, 42.9°W
Report Text: SBTE 220900Z 00000KT CAVOK 26/22 Q1010
Loading
Personal Weather Stations






























Interactive Weather Map New forecast layout! Learn more

10-Day Weather Forecast

Advertisements
Track Severe Weather on mobile